WMKC/KBR METAR and TAF weather

Enter ICAO airport designator
Station Type Date Time Source
WMKC METAR 2019/04/25 07:00 UTC NOAA

WMKC 250700Z 05009KT 010V090 9999 FEW018 BKN280 33/25 Q1007


Station Type Date Time Source
WMKC Decoded METAR 2019/04/25 07:00 UTC NOAA

Kota Bharu, Malaysia (WMKC) 06-10N 102-17E 5M
Apr 25, 2019 - 03:00 AM EDT / 2019.04.25 0700 UTC
Wind: from the NE (050 degrees) at 10 MPH (9 KT) (direction variable):0
Visibility: greater than 7 mile(s):0
Sky conditions: mostly cloudy
Temperature: 91 F (33 C)
Heat index: 103.5 F (39.7 C):1
Dew Point: 77 F (25 C)
Relative Humidity: 62%
Pressure (altimeter): 29.74 in. Hg (1007 hPa)
ob: WMKC 250700Z 05009KT 010V090 9999 FEW018 BKN280 33/25 Q1007
cycle: 7

Station Type Date Time Source
WMKC TAF 2019/04/25 06:00 UTC NOAA

TAF WMKC 250500Z 2506/2606 06010KT 9999 FEW018 BKN280
BECMG 2518/2519 VRB03KT
BECMG 2602/2603 06010KT

Example: see airport list